Portada
METAR-TAF:

METAR-TAF

Aeroports :

Plataforma petroliera

Goeree Le, Països Baixos

latitud: 51-55-33N, longitud: 3-40-12E, altitud: 19 m

Observació

L'informe es va fer fa 16 minuts, a les 13:25 UTC
Vent 14 kt del Sud-Oest
Temperatura 8°C
Humitat 87%
Pressió 1004 hPa
Visibilitat 10 km o més

METAR: EHSC 111325Z AUTO 23014KT 9999 ///////// 08/06 Q1004 W09/H9

Hora: 14:41 (13:41 UTC)


TAF: manca

Observacions i pronòstics meteorològics de més de 4000 aeroports (METAR i TAF).

Les estacions disponibles són els punts grocs i vermells al mapa.

Posi el ratolí al punt desitjat per veure el nom de l'estació.

Feu clic per veure les observacions i els pronòstics meteorològics.

Per canviar el mapa: feu clic els botons verds amb una creu de color negre per apropar; al botó verd amb un guió per allunyar la imatge; o en les fletxes verdes per a mapes adjacents.


METAR-TAF: